createdAt,value
2019-01-21T00:02:08.083Z,9.13
2019-01-21T00:07:12.061Z,9.73
2019-01-21T00:12:15.782Z,9.43
2019-01-21T00:17:22.481Z,8.60
2019-01-21T00:22:25.269Z,9.57
2019-01-21T00:27:29.037Z,9.43
2019-01-21T00:32:32.768Z,8.77
2019-01-21T00:37:36.561Z,9.07
2019-01-21T00:42:40.286Z,8.57
2019-01-21T00:47:44.089Z,9.17
2019-01-21T00:52:47.843Z,8.57
2019-01-21T00:57:51.587Z,9.10
2019-01-21T01:02:55.501Z,9.03
2019-01-21T01:07:59.201Z,8.70
2019-01-21T01:13:02.920Z,8.67
2019-01-21T01:18:06.712Z,8.40
2019-01-21T01:23:10.417Z,8.47
2019-01-21T01:28:14.160Z,9.33
2019-01-21T01:33:17.894Z,9.10
2019-01-21T01:38:21.617Z,12.07
2019-01-21T01:43:25.347Z,11.43
2019-01-21T01:48:29.033Z,10.53
2019-01-21T01:53:33.670Z,10.53
2019-01-21T01:58:37.411Z,10.07
2019-01-21T02:03:41.171Z,9.47
2019-01-21T02:08:44.887Z,8.67
2019-01-21T02:13:48.611Z,10.23
2019-01-21T02:18:52.432Z,10.40
2019-01-21T02:24:04.487Z,8.80
2019-01-21T02:29:32.768Z,9.40
2019-01-21T02:34:49.644Z,9.80
2019-01-21T02:40:09.629Z,8.90
2019-01-21T02:45:44.826Z,8.87
2019-01-21T02:51:22.440Z,10.73
2019-01-21T02:56:59.536Z,11.97
2019-01-21T03:02:27.675Z,13.30
2019-01-21T03:08:21.906Z,11.70
2019-01-21T03:13:35.892Z,10.00
2019-01-21T03:18:58.850Z,11.03
2019-01-21T03:24:26.208Z,12.87
2019-01-21T03:30:26.657Z,11.33
2019-01-21T03:36:11.084Z,10.93
2019-01-21T03:41:33.938Z,10.83
2019-01-21T03:47:09.582Z,12.80
2019-01-21T03:52:42.753Z,14.53
2019-01-21T03:58:11.829Z,13.37
2019-01-21T04:03:41.909Z,13.87
2019-01-21T04:09:30.009Z,13.77
2019-01-21T04:15:30.032Z,12.70
2019-01-21T04:21:17.917Z,14.20
2019-01-21T04:26:48.382Z,15.00
2019-01-21T04:32:05.137Z,14.87
2019-01-21T04:37:39.053Z,17.90
2019-01-21T04:43:06.259Z,17.63
2019-01-21T04:48:36.841Z,16.17
2019-01-21T04:54:12.026Z,16.73
2019-01-21T04:59:41.241Z,16.77
2019-01-21T05:05:32.207Z,17.07
2019-01-21T05:10:55.647Z,16.77
2019-01-21T05:16:58.408Z,15.63
2019-01-21T05:22:19.281Z,17.63
2019-01-21T05:27:36.658Z,19.10
2019-01-21T05:32:55.714Z,19.80
2019-01-21T05:38:46.869Z,18.67
2019-01-21T05:44:24.446Z,18.17
2019-01-21T05:49:52.964Z,17.57
2019-01-21T05:55:37.355Z,19.40
2019-01-21T06:00:59.084Z,17.93
2019-01-21T06:06:35.797Z,18.60
2019-01-21T06:11:53.319Z,16.83
2019-01-21T06:17:05.273Z,17.90
2019-01-21T06:22:52.503Z,16.77
2019-01-21T06:28:25.396Z,19.03
2019-01-21T06:33:57.597Z,20.30
2019-01-21T06:39:34.035Z,18.80
2019-01-21T06:45:03.737Z,19.30
2019-01-21T06:50:25.712Z,22.00
2019-01-21T06:55:54.473Z,23.37
2019-01-21T07:01:29.173Z,23.57
2019-01-21T07:06:54.230Z,23.30
2019-01-21T07:12:31.825Z,21.00
2019-01-21T07:18:11.058Z,22.07
2019-01-21T07:23:41.589Z,22.27
2019-01-21T07:29:23.062Z,21.50
2019-01-21T07:34:49.298Z,24.93
2019-01-21T07:40:25.494Z,21.27
2019-01-21T07:45:50.614Z,22.57
2019-01-21T07:51:34.098Z,21.67
2019-01-21T07:57:22.318Z,23.03
2019-01-21T08:02:49.920Z,21.27
2019-01-21T08:08:16.698Z,21.77
2019-01-21T08:13:46.611Z,22.97
2019-01-21T08:19:29.137Z,23.43
2019-01-21T08:24:56.861Z,27.47
2019-01-21T08:30:52.585Z,23.47
2019-01-21T08:36:38.269Z,23.07
2019-01-21T08:42:00.219Z,25.00
2019-01-21T08:47:36.489Z,23.20
2019-01-21T08:53:21.572Z,24.17
2019-01-21T08:59:01.688Z,24.60
2019-01-21T09:04:29.337Z,22.47
2019-01-21T09:09:48.643Z,20.30
2019-01-21T09:15:19.901Z,23.63
2019-01-21T09:20:32.816Z,36.17
2019-01-21T09:25:57.228Z,32.87
2019-01-21T09:31:51.789Z,28.37
2019-01-21T09:37:21.282Z,27.37
2019-01-21T09:42:40.257Z,25.90
2019-01-21T09:47:42.701Z,27.97
2019-01-21T09:52:46.881Z,24.83
2019-01-21T09:57:56.245Z,27.20
2019-01-21T10:03:02.833Z,28.80
2019-01-21T10:08:36.782Z,30.37
2019-01-21T10:14:16.345Z,28.83
2019-01-21T10:19:39.067Z,27.30
2019-01-21T10:25:27.533Z,27.27
2019-01-21T10:31:07.222Z,30.97
2019-01-21T10:36:51.622Z,38.03
2019-01-21T10:42:23.861Z,35.10
2019-01-21T10:48:12.389Z,27.73
2019-01-21T10:53:32.894Z,29.83
2019-01-21T10:58:49.605Z,29.47
2019-01-21T11:04:05.045Z,30.80
2019-01-21T11:09:33.074Z,36.87
2019-01-21T11:15:01.531Z,25.87
2019-01-21T11:20:35.007Z,26.50
2019-01-21T11:26:01.532Z,32.23
2019-01-21T11:31:58.285Z,26.27
2019-01-21T11:37:31.764Z,36.17
2019-01-21T11:43:32.302Z,35.20
2019-01-21T11:48:56.801Z,34.13
2019-01-21T11:54:11.529Z,27.77
2019-01-21T11:59:44.049Z,26.47
2019-01-21T12:05:12.923Z,25.47
2019-01-21T12:10:57.178Z,26.63
2019-01-21T12:16:31.797Z,25.83
2019-01-21T12:22:07.825Z,26.43
2019-01-21T12:27:23.745Z,26.23
2019-01-21T12:33:20.754Z,26.93
2019-01-21T12:38:49.426Z,25.73
2019-01-21T12:44:24.685Z,27.20
2019-01-21T12:49:57.378Z,24.70
2019-01-21T12:55:42.949Z,27.00
2019-01-21T13:01:04.598Z,26.67
2019-01-21T13:06:20.227Z,24.77
2019-01-21T13:11:51.090Z,24.93
2019-01-21T13:17:09.642Z,23.20
2019-01-21T13:22:51.600Z,22.50
2019-01-21T13:28:11.777Z,24.07
2019-01-21T13:33:28.275Z,22.70
2019-01-21T13:38:55.605Z,22.47
2019-01-21T13:44:23.760Z,21.33
2019-01-21T13:49:44.392Z,20.93
2019-01-21T13:55:12.557Z,21.67
2019-01-21T14:00:35.250Z,21.73
2019-01-21T14:06:35.581Z,21.47
2019-01-21T14:12:00.409Z,23.17
2019-01-21T14:17:52.166Z,24.00
2019-01-21T14:23:12.857Z,24.63
2019-01-21T14:28:58.148Z,23.27
2019-01-21T14:34:49.441Z,23.60
2019-01-21T14:40:00.022Z,24.17
2019-01-21T14:45:32.159Z,22.80
2019-01-21T14:51:05.273Z,20.73
2019-01-21T14:56:24.780Z,23.93
2019-01-21T15:01:53.331Z,25.10
2019-01-21T15:07:29.982Z,23.37
2019-01-21T15:12:55.751Z,23.90
2019-01-21T15:18:26.227Z,22.37
2019-01-21T15:23:55.919Z,22.47
2019-01-21T15:29:45.409Z,24.07
2019-01-21T15:35:13.862Z,24.27
2019-01-21T15:40:27.973Z,23.87
2019-01-21T15:45:56.263Z,21.67
2019-01-21T15:51:31.221Z,21.73
2019-01-21T15:56:58.167Z,21.03
2019-01-21T16:02:07.333Z,20.57
2019-01-21T16:07:33.542Z,20.83
2019-01-21T16:12:53.045Z,20.77
2019-01-21T16:18:05.820Z,19.57
2019-01-21T16:23:37.277Z,21.13
2019-01-21T16:29:08.351Z,23.10
2019-01-21T16:34:40.416Z,23.93
2019-01-21T16:40:52.357Z,23.00
2019-01-21T16:45:56.063Z,26.83
2019-01-21T16:50:59.749Z,24.83
2019-01-21T16:56:03.466Z,23.13
2019-01-21T17:01:07.193Z,22.87
2019-01-21T17:06:10.975Z,22.77
2019-01-21T17:11:14.746Z,23.23
2019-01-21T17:16:18.470Z,27.20
2019-01-21T17:21:26.973Z,25.53
2019-01-21T17:26:28.094Z,23.93
2019-01-21T17:31:31.824Z,23.77
2019-01-21T17:36:35.780Z,25.23
2019-01-21T17:41:40.317Z,23.97
2019-01-21T17:46:44.204Z,24.77
2019-01-21T17:51:47.937Z,24.57
2019-01-21T17:56:51.670Z,24.97
2019-01-21T18:01:55.489Z,31.27
2019-01-21T18:06:59.271Z,26.87
2019-01-21T18:12:03.093Z,28.23
2019-01-21T18:17:06.916Z,26.43
2019-01-21T18:22:10.792Z,26.37
2019-01-21T18:27:14.780Z,26.07
2019-01-21T18:32:18.489Z,27.23
2019-01-21T18:37:22.587Z,27.07
2019-01-21T18:42:26.401Z,27.77
2019-01-21T18:47:30.402Z,28.00
2019-01-21T18:52:34.097Z,26.83
2019-01-21T18:57:37.897Z,27.97
2019-01-21T19:02:41.772Z,30.90
2019-01-21T19:07:45.805Z,29.93
2019-01-21T19:12:50.197Z,27.97
2019-01-21T19:17:54.497Z,34.17
2019-01-21T19:22:58.885Z,30.50
2019-01-21T19:28:02.650Z,32.23
2019-01-21T19:33:06.757Z,30.60
2019-01-21T19:38:11.273Z,29.87
2019-01-21T19:43:15.845Z,29.77
2019-01-21T19:48:19.999Z,30.33
2019-01-21T19:53:24.746Z,29.00
2019-01-21T19:58:28.880Z,28.20
2019-01-21T20:03:33.961Z,31.00
2019-01-21T20:08:37.741Z,29.77
2019-01-21T20:13:41.699Z,30.23
2019-01-21T20:18:45.682Z,31.37
2019-01-21T20:23:49.390Z,33.27
2019-01-21T20:28:53.505Z,29.63
2019-01-21T20:33:57.376Z,31.43
2019-01-21T20:39:01.764Z,30.40
2019-01-21T20:44:05.544Z,32.10
2019-01-21T20:49:09.392Z,31.00
2019-01-21T20:54:13.194Z,31.90
2019-01-21T20:59:17.121Z,32.13
2019-01-21T21:04:21.463Z,32.27
2019-01-21T21:09:25.633Z,30.60
2019-01-21T21:14:29.387Z,32.53
2019-01-21T21:19:33.431Z,33.43
2019-01-21T21:24:37.225Z,33.43
2019-01-21T21:29:41.111Z,33.13
2019-01-21T21:34:45.020Z,31.50
2019-01-21T21:39:49.222Z,31.60
2019-01-21T21:44:52.930Z,32.63
2019-01-21T21:49:56.992Z,34.80
2019-01-21T21:55:01.131Z,33.73
2019-01-21T22:00:07.930Z,33.07
2019-01-21T22:05:12.670Z,34.23
2019-01-21T22:10:20.084Z,32.40
2019-01-21T22:15:24.487Z,34.30
2019-01-21T22:20:28.268Z,36.10
2019-01-21T22:25:31.967Z,33.63
2019-01-21T22:30:35.737Z,32.77
2019-01-21T22:35:39.466Z,35.20
2019-01-21T22:40:43.321Z,36.67
2019-01-21T22:45:47.092Z,36.27
2019-01-21T22:50:50.794Z,35.90
2019-01-21T22:55:54.818Z,34.93
2019-01-21T23:01:16.701Z,35.97
2019-01-21T23:06:20.399Z,35.17
2019-01-21T23:11:24.179Z,35.43
2019-01-21T23:16:27.890Z,35.00
2019-01-21T23:21:31.670Z,33.83
2019-01-21T23:26:35.373Z,32.97
2019-01-21T23:31:39.492Z,35.67
2019-01-21T23:36:43.265Z,34.70
2019-01-21T23:41:46.969Z,33.83
2019-01-21T23:46:50.753Z,34.27
2019-01-21T23:51:54.457Z,33.57
2019-01-21T23:56:58.233Z,35.60
